sensor_id;sensor_type;location;lat;lon;timestamp;P1;durP1;ratioP1;P2;durP2;ratioP2
29092;SDS011;16167;48.768;14.984;2023-02-26T00:01:30;8.38;;;4.05;;
29092;SDS011;16167;48.768;14.984;2023-02-26T00:04:00;3.83;;;2.92;;
29092;SDS011;16167;48.768;14.984;2023-02-26T00:06:30;3.60;;;3.15;;
29092;SDS011;16167;48.768;14.984;2023-02-26T00:08:59;4.50;;;3.45;;
29092;SDS011;16167;48.768;14.984;2023-02-26T00:11:31;3.63;;;2.90;;
29092;SDS011;16167;48.768;14.984;2023-02-26T00:14:00;3.90;;;3.08;;
29092;SDS011;16167;48.768;14.984;2023-02-26T00:16:31;4.25;;;3.13;;
29092;SDS011;16167;48.768;14.984;2023-02-26T00:19:01;3.90;;;3.25;;
29092;SDS011;16167;48.768;14.984;2023-02-26T00:21:32;3.88;;;3.20;;
29092;SDS011;16167;48.768;14.984;2023-02-26T00:24:02;3.15;;;2.72;;
29092;SDS011;16167;48.768;14.984;2023-02-26T00:26:33;3.10;;;2.55;;
29092;SDS011;16167;48.768;14.984;2023-02-26T00:29:02;4.13;;;3.63;;
29092;SDS011;16167;48.768;14.984;2023-02-26T00:31:31;4.75;;;2.97;;
29092;SDS011;16167;48.768;14.984;2023-02-26T00:33:59;3.40;;;2.30;;
29092;SDS011;16167;48.768;14.984;2023-02-26T00:36:29;5.55;;;3.30;;
29092;SDS011;16167;48.768;14.984;2023-02-26T00:39:06;4.25;;;3.50;;
29092;SDS011;16167;48.768;14.984;2023-02-26T00:41:54;5.50;;;3.75;;
29092;SDS011;16167;48.768;14.984;2023-02-26T00:44:23;5.45;;;4.28;;
29092;SDS011;16167;48.768;14.984;2023-02-26T00:46:53;3.65;;;2.58;;
29092;SDS011;16167;48.768;14.984;2023-02-26T00:49:29;4.07;;;3.08;;
29092;SDS011;16167;48.768;14.984;2023-02-26T00:52:10;5.43;;;3.15;;
29092;SDS011;16167;48.768;14.984;2023-02-26T00:54:41;4.70;;;3.10;;
29092;SDS011;16167;48.768;14.984;2023-02-26T00:57:11;3.85;;;2.45;;
29092;SDS011;16167;48.768;14.984;2023-02-26T01:02:06;4.18;;;2.90;;
29092;SDS011;16167;48.768;14.984;2023-02-26T01:04:35;3.17;;;2.83;;
29092;SDS011;16167;48.768;14.984;2023-02-26T01:07:04;3.17;;;2.88;;
29092;SDS011;16167;48.768;14.984;2023-02-26T01:09:35;2.85;;;2.58;;
29092;SDS011;16167;48.768;14.984;2023-02-26T01:12:05;3.33;;;2.60;;
29092;SDS011;16167;48.768;14.984;2023-02-26T01:14:36;4.68;;;3.22;;
29092;SDS011;16167;48.768;14.984;2023-02-26T01:17:06;3.40;;;2.67;;
29092;SDS011;16167;48.768;14.984;2023-02-26T01:19:43;3.10;;;2.70;;
29092;SDS011;16167;48.768;14.984;2023-02-26T01:22:17;3.20;;;2.70;;
29092;SDS011;16167;48.768;14.984;2023-02-26T01:24:50;3.30;;;3.00;;
29092;SDS011;16167;48.768;14.984;2023-02-26T01:27:22;5.63;;;2.88;;
29092;SDS011;16167;48.768;14.984;2023-02-26T01:29:52;2.90;;;2.40;;
29092;SDS011;16167;48.768;14.984;2023-02-26T01:32:22;2.90;;;2.70;;
29092;SDS011;16167;48.768;14.984;2023-02-26T01:34:57;4.00;;;2.72;;
29092;SDS011;16167;48.768;14.984;2023-02-26T01:37:30;3.80;;;2.72;;
29092;SDS011;16167;48.768;14.984;2023-02-26T01:40:14;3.13;;;2.60;;
29092;SDS011;16167;48.768;14.984;2023-02-26T01:43:10;3.30;;;2.85;;
29092;SDS011;16167;48.768;14.984;2023-02-26T01:45:50;2.80;;;2.60;;
29092;SDS011;16167;48.768;14.984;2023-02-26T01:48:29;4.03;;;2.70;;
29092;SDS011;16167;48.768;14.984;2023-02-26T01:51:02;3.00;;;1.88;;
29092;SDS011;16167;48.768;14.984;2023-02-26T01:53:32;3.10;;;2.80;;
29092;SDS011;16167;48.768;14.984;2023-02-26T01:56:03;3.30;;;2.88;;
29092;SDS011;16167;48.768;14.984;2023-02-26T01:58:38;3.25;;;2.35;;
29092;SDS011;16167;48.768;14.984;2023-02-26T02:01:08;2.60;;;2.28;;
29092;SDS011;16167;48.768;14.984;2023-02-26T02:03:37;3.40;;;2.65;;
29092;SDS011;16167;48.768;14.984;2023-02-26T02:06:08;2.63;;;2.42;;
29092;SDS011;16167;48.768;14.984;2023-02-26T02:08:41;2.67;;;2.45;;
29092;SDS011;16167;48.768;14.984;2023-02-26T02:11:11;3.10;;;2.50;;
29092;SDS011;16167;48.768;14.984;2023-02-26T02:13:45;3.00;;;2.67;;
29092;SDS011;16167;48.768;14.984;2023-02-26T02:16:26;3.22;;;2.53;;
29092;SDS011;16167;48.768;14.984;2023-02-26T02:19:04;2.50;;;2.30;;
29092;SDS011;16167;48.768;14.984;2023-02-26T02:22:00;3.17;;;2.90;;
29092;SDS011;16167;48.768;14.984;2023-02-26T02:24:44;3.08;;;2.70;;
29092;SDS011;16167;48.768;14.984;2023-02-26T02:27:26;3.33;;;2.80;;
29092;SDS011;16167;48.768;14.984;2023-02-26T02:30:10;2.78;;;2.58;;
29092;SDS011;16167;48.768;14.984;2023-02-26T02:32:53;3.33;;;3.03;;
29092;SDS011;16167;48.768;14.984;2023-02-26T02:35:27;5.07;;;2.58;;
29092;SDS011;16167;48.768;14.984;2023-02-26T02:38:01;5.25;;;3.15;;
29092;SDS011;16167;48.768;14.984;2023-02-26T02:40:34;3.35;;;3.05;;
29092;SDS011;16167;48.768;14.984;2023-02-26T02:43:07;3.67;;;3.30;;
29092;SDS011;16167;48.768;14.984;2023-02-26T02:45:40;3.90;;;3.50;;
29092;SDS011;16167;48.768;14.984;2023-02-26T02:48:13;4.32;;;2.90;;
29092;SDS011;16167;48.768;14.984;2023-02-26T02:50:46;3.67;;;3.38;;
29092;SDS011;16167;48.768;14.984;2023-02-26T02:53:19;3.95;;;3.53;;
29092;SDS011;16167;48.768;14.984;2023-02-26T02:55:51;4.25;;;3.55;;
29092;SDS011;16167;48.768;14.984;2023-02-26T02:58:26;3.85;;;3.35;;
29092;SDS011;16167;48.768;14.984;2023-02-26T03:00:58;4.38;;;3.30;;
29092;SDS011;16167;48.768;14.984;2023-02-26T03:03:33;4.85;;;3.97;;
29092;SDS011;16167;48.768;14.984;2023-02-26T03:06:05;3.53;;;3.22;;
29092;SDS011;16167;48.768;14.984;2023-02-26T03:08:35;4.85;;;3.92;;
29092;SDS011;16167;48.768;14.984;2023-02-26T03:11:06;4.88;;;3.85;;
29092;SDS011;16167;48.768;14.984;2023-02-26T03:13:35;4.80;;;4.30;;
29092;SDS011;16167;48.768;14.984;2023-02-26T03:16:09;5.05;;;4.15;;
29092;SDS011;16167;48.768;14.984;2023-02-26T03:18:52;4.80;;;4.13;;
29092;SDS011;16167;48.768;14.984;2023-02-26T03:21:26;5.25;;;4.30;;
29092;SDS011;16167;48.768;14.984;2023-02-26T03:24:00;5.88;;;5.05;;
29092;SDS011;16167;48.768;14.984;2023-02-26T03:26:37;5.75;;;4.57;;
29092;SDS011;16167;48.768;14.984;2023-02-26T03:29:15;6.00;;;4.70;;
29092;SDS011;16167;48.768;14.984;2023-02-26T03:31:51;5.10;;;4.60;;
29092;SDS011;16167;48.768;14.984;2023-02-26T03:34:25;4.55;;;4.10;;
29092;SDS011;16167;48.768;14.984;2023-02-26T03:36:57;8.15;;;5.00;;
29092;SDS011;16167;48.768;14.984;2023-02-26T03:39:30;7.35;;;4.60;;
29092;SDS011;16167;48.768;14.984;2023-02-26T03:42:05;6.25;;;4.95;;
29092;SDS011;16167;48.768;14.984;2023-02-26T03:44:38;5.65;;;4.47;;
29092;SDS011;16167;48.768;14.984;2023-02-26T03:47:11;6.00;;;4.78;;
29092;SDS011;16167;48.768;14.984;2023-02-26T03:49:43;7.53;;;5.65;;
29092;SDS011;16167;48.768;14.984;2023-02-26T03:52:14;6.15;;;5.10;;
29092;SDS011;16167;48.768;14.984;2023-02-26T03:54:44;5.20;;;4.38;;
29092;SDS011;16167;48.768;14.984;2023-02-26T03:57:17;6.50;;;5.40;;
29092;SDS011;16167;48.768;14.984;2023-02-26T03:59:45;5.78;;;4.85;;
29092;SDS011;16167;48.768;14.984;2023-02-26T04:02:13;6.25;;;5.38;;
29092;SDS011;16167;48.768;14.984;2023-02-26T04:04:48;5.88;;;4.80;;
29092;SDS011;16167;48.768;14.984;2023-02-26T04:07:20;6.63;;;4.90;;
29092;SDS011;16167;48.768;14.984;2023-02-26T04:09:49;6.22;;;4.57;;
29092;SDS011;16167;48.768;14.984;2023-02-26T04:12:19;6.70;;;5.35;;
29092;SDS011;16167;48.768;14.984;2023-02-26T04:14:48;7.28;;;5.32;;
29092;SDS011;16167;48.768;14.984;2023-02-26T04:17:17;6.85;;;4.97;;
29092;SDS011;16167;48.768;14.984;2023-02-26T04:19:46;6.30;;;5.30;;
29092;SDS011;16167;48.768;14.984;2023-02-26T04:24:43;5.07;;;4.47;;
29092;SDS011;16167;48.768;14.984;2023-02-26T04:27:11;6.18;;;5.20;;
29092;SDS011;16167;48.768;14.984;2023-02-26T04:29:39;5.68;;;5.07;;
29092;SDS011;16167;48.768;14.984;2023-02-26T04:32:07;7.45;;;5.47;;
29092;SDS011;16167;48.768;14.984;2023-02-26T04:34:35;5.93;;;4.93;;
29092;SDS011;16167;48.768;14.984;2023-02-26T04:37:05;6.43;;;5.25;;
29092;SDS011;16167;48.768;14.984;2023-02-26T04:39:33;5.45;;;4.88;;
29092;SDS011;16167;48.768;14.984;2023-02-26T04:42:01;5.28;;;4.75;;
29092;SDS011;16167;48.768;14.984;2023-02-26T04:44:29;8.52;;;5.07;;
29092;SDS011;16167;48.768;14.984;2023-02-26T04:46:58;5.72;;;4.45;;
29092;SDS011;16167;48.768;14.984;2023-02-26T04:49:26;6.27;;;5.10;;
29092;SDS011;16167;48.768;14.984;2023-02-26T04:51:54;7.15;;;5.38;;
29092;SDS011;16167;48.768;14.984;2023-02-26T04:54:24;5.43;;;4.63;;
29092;SDS011;16167;48.768;14.984;2023-02-26T04:59:20;5.90;;;4.35;;
29092;SDS011;16167;48.768;14.984;2023-02-26T05:01:48;7.43;;;5.30;;
29092;SDS011;16167;48.768;14.984;2023-02-26T05:04:16;5.82;;;4.28;;
29092;SDS011;16167;48.768;14.984;2023-02-26T05:06:44;5.05;;;4.22;;
29092;SDS011;16167;48.768;14.984;2023-02-26T05:09:12;5.45;;;4.57;;
29092;SDS011;16167;48.768;14.984;2023-02-26T05:11:42;5.55;;;4.60;;
29092;SDS011;16167;48.768;14.984;2023-02-26T05:16:38;5.78;;;4.10;;
29092;SDS011;16167;48.768;14.984;2023-02-26T05:19:06;4.53;;;3.90;;
29092;SDS011;16167;48.768;14.984;2023-02-26T05:21:34;5.18;;;4.20;;
29092;SDS011;16167;48.768;14.984;2023-02-26T05:24:02;4.63;;;4.00;;
29092;SDS011;16167;48.768;14.984;2023-02-26T05:26:31;3.60;;;3.30;;
29092;SDS011;16167;48.768;14.984;2023-02-26T05:29:00;4.18;;;3.75;;
29092;SDS011;16167;48.768;14.984;2023-02-26T05:31:29;4.85;;;3.90;;
29092;SDS011;16167;48.768;14.984;2023-02-26T05:33:57;4.80;;;3.80;;
29092;SDS011;16167;48.768;14.984;2023-02-26T05:36:25;4.80;;;3.63;;
29092;SDS011;16167;48.768;14.984;2023-02-26T05:38:53;4.78;;;4.13;;
29092;SDS011;16167;48.768;14.984;2023-02-26T05:41:21;5.13;;;4.63;;
29092;SDS011;16167;48.768;14.984;2023-02-26T05:43:50;3.45;;;3.10;;
29092;SDS011;16167;48.768;14.984;2023-02-26T05:46:19;5.00;;;4.03;;
29092;SDS011;16167;48.768;14.984;2023-02-26T05:48:48;6.13;;;4.13;;
29092;SDS011;16167;48.768;14.984;2023-02-26T05:51:16;4.88;;;4.35;;
29092;SDS011;16167;48.768;14.984;2023-02-26T05:53:44;4.90;;;4.15;;
29092;SDS011;16167;48.768;14.984;2023-02-26T05:56:12;4.95;;;4.07;;
29092;SDS011;16167;48.768;14.984;2023-02-26T05:58:43;4.95;;;4.35;;
29092;SDS011;16167;48.768;14.984;2023-02-26T06:01:11;6.93;;;4.60;;
29092;SDS011;16167;48.768;14.984;2023-02-26T06:03:40;4.97;;;4.20;;
29092;SDS011;16167;48.768;14.984;2023-02-26T06:06:09;5.60;;;4.35;;
29092;SDS011;16167;48.768;14.984;2023-02-26T06:08:37;5.60;;;4.57;;
29092;SDS011;16167;48.768;14.984;2023-02-26T06:11:05;4.95;;;4.32;;
29092;SDS011;16167;48.768;14.984;2023-02-26T06:13:33;4.75;;;4.20;;
29092;SDS011;16167;48.768;14.984;2023-02-26T06:16:02;4.40;;;3.57;;
29092;SDS011;16167;48.768;14.984;2023-02-26T06:18:31;6.82;;;4.78;;
29092;SDS011;16167;48.768;14.984;2023-02-26T06:21:00;5.85;;;4.40;;
29092;SDS011;16167;48.768;14.984;2023-02-26T06:23:29;4.55;;;4.10;;
29092;SDS011;16167;48.768;14.984;2023-02-26T06:25:57;5.57;;;4.20;;
29092;SDS011;16167;48.768;14.984;2023-02-26T06:28:25;5.30;;;4.20;;
29092;SDS011;16167;48.768;14.984;2023-02-26T06:30:54;5.65;;;4.55;;
29092;SDS011;16167;48.768;14.984;2023-02-26T06:33:22;4.07;;;3.27;;
29092;SDS011;16167;48.768;14.984;2023-02-26T06:35:50;5.57;;;4.35;;
29092;SDS011;16167;48.768;14.984;2023-02-26T06:38:20;5.83;;;3.57;;
29092;SDS011;16167;48.768;14.984;2023-02-26T06:43:16;6.18;;;4.10;;
29092;SDS011;16167;48.768;14.984;2023-02-26T06:45:44;6.18;;;4.72;;
29092;SDS011;16167;48.768;14.984;2023-02-26T06:48:12;6.45;;;4.65;;
29092;SDS011;16167;48.768;14.984;2023-02-26T06:50:41;6.22;;;5.00;;
29092;SDS011;16167;48.768;14.984;2023-02-26T06:53:09;6.72;;;4.65;;
29092;SDS011;16167;48.768;14.984;2023-02-26T06:55:42;4.45;;;3.92;;
29092;SDS011;16167;48.768;14.984;2023-02-26T06:58:11;4.55;;;3.78;;
29092;SDS011;16167;48.768;14.984;2023-02-26T07:00:39;5.33;;;3.97;;
29092;SDS011;16167;48.768;14.984;2023-02-26T07:03:08;4.72;;;4.13;;
29092;SDS011;16167;48.768;14.984;2023-02-26T07:05:38;6.63;;;5.10;;
29092;SDS011;16167;48.768;14.984;2023-02-26T07:08:07;6.90;;;5.93;;
29092;SDS011;16167;48.768;14.984;2023-02-26T07:10:35;12.65;;;7.80;;
29092;SDS011;16167;48.768;14.984;2023-02-26T07:13:05;11.52;;;7.13;;
29092;SDS011;16167;48.768;14.984;2023-02-26T07:15:34;9.77;;;6.50;;
29092;SDS011;16167;48.768;14.984;2023-02-26T07:18:02;7.32;;;4.97;;
29092;SDS011;16167;48.768;14.984;2023-02-26T07:20:30;3.90;;;3.50;;
29092;SDS011;16167;48.768;14.984;2023-02-26T07:22:59;5.60;;;4.20;;
29092;SDS011;16167;48.768;14.984;2023-02-26T07:25:28;5.05;;;4.15;;
29092;SDS011;16167;48.768;14.984;2023-02-26T07:27:56;5.70;;;4.32;;
29092;SDS011;16167;48.768;14.984;2023-02-26T07:30:26;4.57;;;3.33;;
29092;SDS011;16167;48.768;14.984;2023-02-26T07:32:55;5.15;;;3.80;;
29092;SDS011;16167;48.768;14.984;2023-02-26T07:35:23;5.90;;;4.25;;
29092;SDS011;16167;48.768;14.984;2023-02-26T07:37:51;5.47;;;4.95;;
29092;SDS011;16167;48.768;14.984;2023-02-26T07:40:19;6.30;;;5.43;;
29092;SDS011;16167;48.768;14.984;2023-02-26T07:42:47;4.70;;;3.85;;
29092;SDS011;16167;48.768;14.984;2023-02-26T07:45:15;4.00;;;3.35;;
29092;SDS011;16167;48.768;14.984;2023-02-26T07:47:49;6.35;;;4.38;;
29092;SDS011;16167;48.768;14.984;2023-02-26T07:50:18;3.67;;;3.20;;
29092;SDS011;16167;48.768;14.984;2023-02-26T07:52:50;4.70;;;3.28;;
29092;SDS011;16167;48.768;14.984;2023-02-26T07:55:19;4.03;;;3.60;;
29092;SDS011;16167;48.768;14.984;2023-02-26T07:57:47;5.20;;;4.28;;
29092;SDS011;16167;48.768;14.984;2023-02-26T08:00:16;5.50;;;4.28;;
29092;SDS011;16167;48.768;14.984;2023-02-26T08:02:44;4.50;;;4.00;;
29092;SDS011;16167;48.768;14.984;2023-02-26T08:05:14;4.03;;;3.50;;
29092;SDS011;16167;48.768;14.984;2023-02-26T08:07:42;6.03;;;3.90;;
29092;SDS011;16167;48.768;14.984;2023-02-26T08:10:10;3.92;;;3.53;;
29092;SDS011;16167;48.768;14.984;2023-02-26T08:12:39;5.05;;;4.30;;
29092;SDS011;16167;48.768;14.984;2023-02-26T08:15:07;4.32;;;3.92;;
29092;SDS011;16167;48.768;14.984;2023-02-26T08:17:38;4.95;;;4.15;;
29092;SDS011;16167;48.768;14.984;2023-02-26T08:20:07;4.82;;;3.97;;
29092;SDS011;16167;48.768;14.984;2023-02-26T08:22:38;4.13;;;3.63;;
29092;SDS011;16167;48.768;14.984;2023-02-26T08:25:06;3.95;;;3.55;;
29092;SDS011;16167;48.768;14.984;2023-02-26T08:27:35;3.05;;;2.50;;
29092;SDS011;16167;48.768;14.984;2023-02-26T08:30:03;5.95;;;4.30;;
29092;SDS011;16167;48.768;14.984;2023-02-26T08:32:33;4.97;;;4.40;;
29092;SDS011;16167;48.768;14.984;2023-02-26T08:35:01;5.28;;;3.85;;
29092;SDS011;16167;48.768;14.984;2023-02-26T08:37:29;7.03;;;3.97;;
29092;SDS011;16167;48.768;14.984;2023-02-26T08:39:59;3.90;;;3.60;;
29092;SDS011;16167;48.768;14.984;2023-02-26T08:42:27;4.38;;;3.80;;
29092;SDS011;16167;48.768;14.984;2023-02-26T08:44:55;4.03;;;3.50;;
29092;SDS011;16167;48.768;14.984;2023-02-26T08:47:23;4.65;;;3.65;;
29092;SDS011;16167;48.768;14.984;2023-02-26T08:49:54;4.53;;;4.13;;
29092;SDS011;16167;48.768;14.984;2023-02-26T08:52:24;4.65;;;3.83;;
29092;SDS011;16167;48.768;14.984;2023-02-26T08:54:52;4.00;;;3.60;;
29092;SDS011;16167;48.768;14.984;2023-02-26T08:57:21;3.67;;;3.38;;
29092;SDS011;16167;48.768;14.984;2023-02-26T08:59:50;5.22;;;3.70;;
29092;SDS011;16167;48.768;14.984;2023-02-26T09:02:18;3.95;;;3.50;;
29092;SDS011;16167;48.768;14.984;2023-02-26T09:04:46;2.97;;;2.75;;
29092;SDS011;16167;48.768;14.984;2023-02-26T09:07:14;3.28;;;3.08;;
29092;SDS011;16167;48.768;14.984;2023-02-26T09:09:42;4.30;;;3.55;;
29092;SDS011;16167;48.768;14.984;2023-02-26T09:12:10;3.70;;;3.40;;
29092;SDS011;16167;48.768;14.984;2023-02-26T09:14:39;4.80;;;3.65;;
29092;SDS011;16167;48.768;14.984;2023-02-26T09:17:07;5.00;;;3.50;;
29092;SDS011;16167;48.768;14.984;2023-02-26T09:19:35;3.97;;;3.50;;
29092;SDS011;16167;48.768;14.984;2023-02-26T09:22:04;3.90;;;3.50;;
29092;SDS011;16167;48.768;14.984;2023-02-26T09:24:33;3.47;;;3.17;;
29092;SDS011;16167;48.768;14.984;2023-02-26T09:29:29;3.53;;;3.22;;
29092;SDS011;16167;48.768;14.984;2023-02-26T09:31:59;8.02;;;5.90;;
29092;SDS011;16167;48.768;14.984;2023-02-26T09:36:55;5.60;;;3.35;;
29092;SDS011;16167;48.768;14.984;2023-02-26T09:39:23;5.15;;;3.15;;
29092;SDS011;16167;48.768;14.984;2023-02-26T09:41:52;3.72;;;2.90;;
29092;SDS011;16167;48.768;14.984;2023-02-26T09:44:22;4.18;;;3.10;;
